Time;durP1;ratioP1;P1;durP2;ratioP2;P2;SDS_P1;SDS_P2;PMS_P1;PMS_P2;Temp;Humidity;BMP_temperature;BMP_pressure;BME280_temperature;BME280_humidity;BME280_pressure;Samples;Min_cycle;Max_cycle;Signal;HPM_P1;HPM_P2
2021/06/04 00:00:39;;;;;;;5.20;1.67;;;17.50;99.90;;;;;;1959929;73;21448;-73
2021/06/04 00:03:05;;;;;;;2.40;1.55;;;17.50;99.90;;;;;;1960007;73;21455;-73
2021/06/04 00:05:31;;;;;;;2.47;1.40;;;17.40;99.90;;;;;;1960109;73;21467;-73
2021/06/04 00:07:57;;;;;;;1.47;1.30;;;17.40;99.90;;;;;;1959974;73;21038;-73
2021/06/04 00:10:23;;;;;;;5.12;1.50;;;17.30;99.90;;;;;;1960143;73;21046;-72
2021/06/04 00:12:49;;;;;;;3.12;1.70;;;17.30;99.90;;;;;;1960014;73;21056;-73
2021/06/04 00:15:16;;;;;;;1.37;1.27;;;17.20;99.90;;;;;;1960145;73;21071;-73
2021/06/04 00:17:43;;;;;;;2.17;1.65;;;17.20;99.90;;;;;;1959941;72;21155;-73
2021/06/04 00:20:09;;;;;;;2.15;1.62;;;17.10;99.90;;;;;;1960028;73;21054;-73
2021/06/04 00:22:35;;;;;;;2.27;1.55;;;17.10;99.90;;;;;;1960086;73;21230;-73
2021/06/04 00:25:01;;;;;;;4.50;1.50;;;17.10;99.90;;;;;;1959910;73;21087;-73
2021/06/04 00:27:27;;;;;;;2.67;1.42;;;17.10;99.90;;;;;;1959862;73;21054;-74
2021/06/04 00:29:53;;;;;;;3.42;1.45;;;17.00;99.90;;;;;;1960029;73;21116;-74
2021/06/04 00:32:22;;;;;;;2.60;1.62;;;17.00;99.90;;;;;;1960030;73;21054;-73
2021/06/04 00:34:47;;;;;;;2.22;1.60;;;17.00;99.90;;;;;;1959738;73;21120;-73
2021/06/04 00:37:13;;;;;;;2.55;1.50;;;17.00;99.90;;;;;;1960112;73;21053;-73
2021/06/04 00:39:40;;;;;;;3.05;1.80;;;17.00;99.90;;;;;;1959920;73;21066;-73
2021/06/04 00:42:06;;;;;;;1.90;1.57;;;17.00;99.90;;;;;;1960225;73;21083;-73
2021/06/04 00:44:33;;;;;;;4.00;1.47;;;17.00;99.90;;;;;;1960053;73;21172;-73
2021/06/04 00:46:59;;;;;;;1.60;1.50;;;17.00;99.90;;;;;;1960214;73;21088;-73
2021/06/04 00:49:25;;;;;;;1.82;1.32;;;16.90;99.90;;;;;;1960035;73;21483;-73
2021/06/04 00:51:51;;;;;;;1.87;1.40;;;16.90;99.90;;;;;;1960031;73;21513;-73
2021/06/04 00:54:18;;;;;;;2.98;1.45;;;16.90;99.90;;;;;;1960338;72;21083;-73
2021/06/04 00:56:45;;;;;;;1.85;1.60;;;16.80;99.90;;;;;;1960001;73;21053;-73
2021/06/04 00:59:11;;;;;;;1.72;1.57;;;16.80;99.90;;;;;;1960223;72;21559;-73
2021/06/04 01:01:37;;;;;;;2.08;1.67;;;16.70;99.90;;;;;;1960036;73;21132;-73
2021/06/04 01:04:03;;;;;;;1.87;1.65;;;16.70;99.90;;;;;;1960224;73;21181;-73
2021/06/04 01:06:30;;;;;;;7.47;1.98;;;16.60;99.90;;;;;;1960164;72;21165;-73
2021/06/04 01:08:56;;;;;;;1.90;1.70;;;16.60;99.90;;;;;;1960224;73;21064;-73
2021/06/04 01:11:22;;;;;;;7.35;1.92;;;16.60;99.90;;;;;;1960116;72;21506;-73
2021/06/04 01:13:48;;;;;;;1.47;1.37;;;16.60;99.90;;;;;;1960098;73;21028;-73
2021/06/04 01:16:14;;;;;;;3.22;1.80;;;16.60;99.90;;;;;;1960227;73;21023;-74
2021/06/04 01:18:41;;;;;;;3.70;1.98;;;16.60;99.90;;;;;;1960106;73;21062;-74
2021/06/04 01:21:07;;;;;;;5.35;1.80;;;16.60;99.90;;;;;;1960225;73;21066;-73
2021/06/04 01:23:33;;;;;;;4.80;1.70;;;16.50;99.90;;;;;;1960125;72;21050;-73
2021/06/04 01:25:59;;;;;;;3.25;1.95;;;16.40;99.90;;;;;;1960117;73;21059;-73
2021/06/04 01:28:25;;;;;;;2.52;1.72;;;16.40;99.90;;;;;;1960018;73;21128;-73
2021/06/04 01:30:52;;;;;;;2.20;1.80;;;16.40;99.90;;;;;;1960198;73;21142;-73
2021/06/04 01:33:18;;;;;;;3.17;2.00;;;16.40;99.90;;;;;;1960042;73;21063;-73
2021/06/04 01:35:44;;;;;;;3.20;1.80;;;16.40;99.90;;;;;;1960192;73;21518;-73
2021/06/04 01:38:10;;;;;;;5.53;2.35;;;16.30;99.90;;;;;;1959958;73;21066;-73
2021/06/04 01:40:36;;;;;;;7.35;2.10;;;16.30;99.90;;;;;;1960173;73;21088;-73
2021/06/04 01:43:02;;;;;;;5.17;1.80;;;16.30;99.90;;;;;;1960076;73;21071;-73
2021/06/04 01:45:28;;;;;;;4.72;2.20;;;16.20;99.90;;;;;;1960188;73;21067;-72
2021/06/04 01:47:55;;;;;;;3.37;2.00;;;16.20;99.90;;;;;;1960258;73;21165;-72
2021/06/04 01:50:21;;;;;;;2.92;2.00;;;16.20;99.90;;;;;;1960253;73;21071;-72
2021/06/04 01:52:47;;;;;;;3.65;1.72;;;16.20;99.90;;;;;;1960210;73;21084;-72
2021/06/04 01:55:13;;;;;;;3.67;2.08;;;16.10;99.90;;;;;;1960014;73;21027;-72
2021/06/04 01:57:39;;;;;;;4.05;1.98;;;16.10;99.90;;;;;;1960301;73;21452;-73
2021/06/04 02:00:05;;;;;;;3.05;1.90;;;16.10;99.90;;;;;;1959957;73;21132;-73
2021/06/04 02:02:31;;;;;;;4.37;2.20;;;16.10;99.90;;;;;;1960111;73;21142;-74
2021/06/04 02:04:58;;;;;;;2.80;2.00;;;16.10;99.90;;;;;;1957114;73;21108;-73
2021/06/04 02:07:24;;;;;;;3.33;2.30;;;16.00;99.90;;;;;;1959893;73;21063;-73
2021/06/04 02:09:50;;;;;;;4.83;1.92;;;16.00;99.90;;;;;;1952849;73;21083;-73
2021/06/04 02:12:16;;;;;;;3.17;2.12;;;16.00;99.90;;;;;;1960114;73;21124;-73
2021/06/04 02:14:42;;;;;;;5.22;2.08;;;15.90;99.90;;;;;;1960211;73;21161;-73
2021/06/04 02:17:08;;;;;;;3.33;2.05;;;15.90;99.90;;;;;;1960026;73;21070;-73
2021/06/04 02:19:34;;;;;;;3.58;1.95;;;15.90;99.90;;;;;;1960199;73;21076;-73
2021/06/04 02:22:01;;;;;;;4.05;1.95;;;15.80;99.90;;;;;;1957046;73;21075;-73
2021/06/04 02:24:27;;;;;;;2.58;1.82;;;15.90;99.90;;;;;;1904257;75;21034;-73
2021/06/04 02:26:53;;;;;;;2.20;1.70;;;15.80;99.90;;;;;;1947736;74;21145;-73
2021/06/04 02:29:19;;;;;;;3.33;1.92;;;15.80;99.90;;;;;;1911157;75;21125;-73
2021/06/04 02:31:45;;;;;;;2.90;1.72;;;15.80;99.90;;;;;;1983438;72;21067;-73
2021/06/04 02:34:11;;;;;;;8.20;2.17;;;15.80;99.90;;;;;;1983340;72;21055;-73
2021/06/04 02:36:37;;;;;;;4.90;2.20;;;15.80;99.90;;;;;;1983443;72;21075;-73
2021/06/04 02:39:03;;;;;;;4.60;2.47;;;15.80;99.90;;;;;;1983425;72;21087;-74
2021/06/04 02:41:30;;;;;;;5.87;2.72;;;15.80;99.90;;;;;;1983460;72;21027;-73
2021/06/04 02:43:56;;;;;;;4.12;2.08;;;15.80;99.90;;;;;;1983509;72;21079;-73
2021/06/04 02:46:22;;;;;;;4.62;2.42;;;15.80;99.90;;;;;;1983416;72;21131;-73
2021/06/04 02:48:48;;;;;;;2.85;2.00;;;15.80;99.90;;;;;;1983224;72;21431;-73
2021/06/04 02:51:14;;;;;;;6.47;2.17;;;15.80;99.90;;;;;;1983243;72;21495;-73
2021/06/04 02:53:40;;;;;;;3.98;2.17;;;15.80;99.90;;;;;;1983266;72;21502;-73
2021/06/04 02:56:06;;;;;;;6.28;2.30;;;15.80;99.90;;;;;;1918458;74;21485;-73
2021/06/04 02:58:32;;;;;;;4.12;2.65;;;15.70;99.90;;;;;;1949579;74;21095;-73
2021/06/04 03:00:59;;;;;;;3.80;2.00;;;15.70;99.90;;;;;;1957238;73;21120;-73
2021/06/04 03:03:25;;;;;;;2.15;1.95;;;15.70;99.90;;;;;;1960515;73;21004;-73
2021/06/04 03:05:51;;;;;;;2.37;1.95;;;15.70;99.90;;;;;;1960062;73;21137;-74
2021/06/04 03:08:20;;;;;;;2.60;2.20;;;15.60;99.90;;;;;;1959956;73;21120;-73
2021/06/04 03:10:45;;;;;;;3.37;2.05;;;15.60;99.90;;;;;;1959616;72;21083;-73
2021/06/04 03:13:11;;;;;;;3.83;2.50;;;15.50;99.90;;;;;;1959887;73;21062;-73
2021/06/04 03:15:37;;;;;;;2.58;1.82;;;15.50;99.90;;;;;;1959778;73;21028;-73
2021/06/04 03:18:03;;;;;;;4.37;2.22;;;15.50;99.90;;;;;;1959846;73;21058;-73
2021/06/04 03:20:29;;;;;;;2.65;2.27;;;15.50;99.90;;;;;;1959786;73;21066;-73
2021/06/04 03:22:55;;;;;;;2.33;1.95;;;15.60;99.90;;;;;;1959793;72;21132;-73
2021/06/04 03:25:22;;;;;;;4.90;2.10;;;15.50;99.90;;;;;;1959856;73;21027;-73
2021/06/04 03:27:48;;;;;;;6.17;2.52;;;15.50;99.90;;;;;;1959855;72;21066;-73
2021/06/04 03:30:14;;;;;;;6.10;3.08;;;15.50;99.90;;;;;;1959836;73;21097;-74
2021/06/04 03:32:40;;;;;;;3.92;2.35;;;15.50;99.90;;;;;;1959991;73;21062;-73
2021/06/04 03:35:06;;;;;;;10.03;2.45;;;15.50;99.90;;;;;;1959943;73;21157;-74
2021/06/04 03:37:32;;;;;;;7.97;2.95;;;15.50;99.90;;;;;;1959911;73;21169;-73
2021/06/04 03:39:58;;;;;;;2.50;2.17;;;15.60;99.90;;;;;;1959939;73;21203;-74
2021/06/04 03:42:24;;;;;;;2.08;1.87;;;15.60;99.90;;;;;;1959980;73;21084;-73
2021/06/04 03:44:51;;;;;;;5.10;2.30;;;15.60;99.90;;;;;;1959887;73;21091;-73
2021/06/04 03:47:17;;;;;;;4.65;2.40;;;15.60;99.90;;;;;;1959826;73;21489;-73
2021/06/04 03:49:43;;;;;;;4.62;2.42;;;15.70;99.90;;;;;;1959821;73;21168;-73
2021/06/04 03:52:09;;;;;;;2.92;1.70;;;15.70;99.90;;;;;;1960023;73;21087;-73
2021/06/04 03:54:36;;;;;;;4.67;2.35;;;15.80;99.90;;;;;;1959718;73;21062;-73
2021/06/04 03:57:02;;;;;;;1.95;1.72;;;15.70;99.90;;;;;;1959853;73;21059;-73
2021/06/04 03:59:28;;;;;;;4.97;2.22;;;15.80;99.90;;;;;;1959812;73;21063;-73
2021/06/04 04:01:54;;;;;;;3.40;1.87;;;15.80;99.90;;;;;;1959856;73;21047;-73
2021/06/04 04:04:20;;;;;;;4.67;2.20;;;15.80;99.90;;;;;;1959814;72;21028;-73
2021/06/04 04:06:46;;;;;;;3.45;2.33;;;15.90;99.90;;;;;;1959859;73;21054;-74
2021/06/04 04:09:12;;;;;;;2.52;2.20;;;15.90;99.90;;;;;;1960063;73;21209;-73
2021/06/04 04:11:38;;;;;;;5.62;2.30;;;16.00;99.90;;;;;;1959771;73;21022;-74
2021/06/04 04:14:05;;;;;;;3.35;2.52;;;16.10;99.90;;;;;;1959834;73;21027;-74
2021/06/04 04:16:31;;;;;;;4.95;2.95;;;16.20;99.90;;;;;;1959832;73;21140;-74
2021/06/04 04:18:57;;;;;;;6.42;3.02;;;16.20;99.90;;;;;;1959985;73;21160;-74
2021/06/04 04:21:23;;;;;;;4.90;3.08;;;16.30;99.90;;;;;;1959920;73;21250;-74
2021/06/04 04:23:49;;;;;;;4.50;2.80;;;16.30;99.90;;;;;;1959923;73;21549;-73
2021/06/04 04:26:15;;;;;;;5.22;2.98;;;16.50;99.90;;;;;;1959843;72;21495;-74
2021/06/04 04:28:41;;;;;;;3.77;3.12;;;16.60;99.90;;;;;;1959971;73;21490;-73
2021/06/04 04:31:08;;;;;;;5.92;2.65;;;16.70;99.90;;;;;;1959975;72;21537;-74
2021/06/04 04:33:34;;;;;;;6.00;2.62;;;16.80;99.90;;;;;;1959989;73;21502;-74
2021/06/04 04:36:00;;;;;;;4.00;2.40;;;16.90;99.90;;;;;;1959984;73;21428;-73
2021/06/04 04:38:26;;;;;;;4.55;2.55;;;16.90;99.90;;;;;;1959914;73;21066;-74
2021/06/04 04:40:58;;;;;;;3.15;2.20;;;17.00;99.90;;;;;;1960059;73;21083;-74
2021/06/04 04:43:20;;;;;;;7.33;2.30;;;17.00;99.90;;;;;;1954989;72;21107;-73
2021/06/04 04:45:46;;;;;;;2.98;2.05;;;17.10;99.90;;;;;;1959803;73;21036;-73
2021/06/04 04:48:12;;;;;;;4.87;2.70;;;17.20;99.90;;;;;;1915742;75;21023;-72
2021/06/04 04:50:38;;;;;;;2.95;2.10;;;17.10;99.90;;;;;;1948219;73;21079;-73
2021/06/04 04:53:04;;;;;;;4.05;2.25;;;17.10;99.90;;;;;;1910974;75;21150;-72
2021/06/04 04:55:31;;;;;;;5.62;2.47;;;17.20;99.90;;;;;;1983344;72;21183;-73
2021/06/04 04:57:57;;;;;;;2.15;1.95;;;17.40;99.90;;;;;;1983437;72;21095;-72
2021/06/04 05:00:23;;;;;;;2.33;1.85;;;17.50;99.90;;;;;;1983382;72;21156;-73
2021/06/04 05:02:49;;;;;;;3.40;1.70;;;17.70;99.90;;;;;;1983351;72;21161;-74
2021/06/04 05:05:15;;;;;;;2.87;2.05;;;17.70;99.90;;;;;;1983232;72;21188;-74
2021/06/04 05:07:41;;;;;;;5.37;2.90;;;17.80;99.90;;;;;;1983328;72;21467;-74
2021/06/04 05:10:07;;;;;;;5.58;2.75;;;17.70;99.90;;;;;;1983197;72;21444;-73
2021/06/04 05:12:34;;;;;;;10.93;3.27;;;17.70;99.90;;;;;;1983263;72;21118;-74
2021/06/04 05:15:01;;;;;;;4.72;2.87;;;17.70;99.90;;;;;;1983235;72;21140;-74
2021/06/04 05:17:27;;;;;;;6.55;2.45;;;17.90;99.90;;;;;;1983202;72;21103;-75
2021/06/04 05:19:54;;;;;;;3.85;2.17;;;18.00;99.90;;;;;;1984585;72;21335;-77
2021/06/04 05:22:20;;;;;;;5.47;2.47;;;18.20;99.90;;;;;;1985828;72;21096;-75
2021/06/04 05:24:46;;;;;;;7.90;2.42;;;18.40;99.90;;;;;;1985100;72;21050;-77
2021/06/04 05:27:12;;;;;;;4.08;2.10;;;18.50;99.90;;;;;;1984429;72;21145;-77
2021/06/04 05:29:39;;;;;;;3.55;2.17;;;18.60;99.90;;;;;;1985556;72;21140;-77
2021/06/04 05:32:05;;;;;;;5.22;2.05;;;18.50;99.90;;;;;;1985231;72;21535;-77
2021/06/04 05:34:31;;;;;;;3.50;2.08;;;18.60;99.90;;;;;;1983201;72;21086;-80
2021/06/04 05:36:57;;;;;;;4.00;2.10;;;18.40;99.90;;;;;;1983485;72;21055;-76
2021/06/04 05:39:23;;;;;;;5.80;2.05;;;18.50;99.90;;;;;;1983861;72;21102;-77
2021/06/04 05:41:50;;;;;;;3.92;2.30;;;18.50;99.90;;;;;;1983383;72;21097;-76
2021/06/04 05:44:18;;;;;;;3.50;1.95;;;18.60;99.90;;;;;;1984082;72;21075;-76
2021/06/04 05:46:44;;;;;;;4.53;2.00;;;18.90;99.90;;;;;;1983545;71;21134;-74
2021/06/04 05:49:10;;;;;;;4.42;1.98;;;18.90;99.90;;;;;;1918712;74;21143;-74
2021/06/04 05:51:36;;;;;;;2.87;1.72;;;18.90;99.90;;;;;;1947821;74;21075;-75
2021/06/04 05:54:02;;;;;;;2.22;1.75;;;19.10;99.90;;;;;;1911046;75;21081;-74
2021/06/04 05:56:28;;;;;;;2.92;1.62;;;19.10;99.90;;;;;;1983385;72;21057;-75
2021/06/04 05:58:54;;;;;;;5.17;1.90;;;19.30;99.90;;;;;;1918703;74;21054;-74
2021/06/04 06:01:20;;;;;;;2.30;1.87;;;19.50;99.90;;;;;;1947693;74;21068;-74
2021/06/04 06:03:46;;;;;;;4.08;2.05;;;19.60;99.90;;;;;;1954001;73;21035;-74
2021/06/04 06:06:13;;;;;;;4.22;2.35;;;19.50;99.90;;;;;;1959881;73;21067;-74
2021/06/04 06:08:40;;;;;;;3.85;1.80;;;19.80;99.90;;;;;;1960087;73;21074;-74
2021/06/04 06:11:06;;;;;;;2.55;1.62;;;20.00;99.90;;;;;;1959990;72;21213;-74
2021/06/04 06:13:32;;;;;;;9.73;1.65;;;20.10;99.90;;;;;;1959998;73;21106;-75
2021/06/04 06:15:58;;;;;;;3.60;1.50;;;20.90;99.90;;;;;;1959838;73;21534;-74
2021/06/04 06:18:24;;;;;;;2.45;1.50;;;21.60;99.90;;;;;;1959925;73;21547;-75
2021/06/04 06:20:51;;;;;;;7.65;1.67;;;22.10;99.90;;;;;;1959915;73;21523;-74
2021/06/04 06:23:17;;;;;;;2.10;1.75;;;23.00;99.90;;;;;;1960188;73;21136;-75
2021/06/04 06:25:43;;;;;;;2.77;1.50;;;24.20;99.90;;;;;;1959914;73;21058;-76
2021/06/04 06:28:09;;;;;;;2.92;1.52;;;24.20;99.90;;;;;;1960025;72;21117;-75
2021/06/04 06:30:35;;;;;;;1.40;1.30;;;24.30;99.90;;;;;;1959954;73;21072;-75
2021/06/04 06:33:01;;;;;;;3.27;1.52;;;23.70;99.90;;;;;;1960043;73;21166;-75
2021/06/04 06:35:27;;;;;;;5.65;1.40;;;23.10;99.90;;;;;;1960038;73;21066;-73
2021/06/04 06:37:53;;;;;;;1.62;1.32;;;22.30;99.90;;;;;;1960989;73;21156;-78
2021/06/04 06:40:20;;;;;;;1.37;1.20;;;22.30;99.90;;;;;;1953488;73;21063;-75
2021/06/04 06:42:46;;;;;;;5.00;1.57;;;22.00;99.90;;;;;;1961748;72;21110;-75
2021/06/04 06:45:12;;;;;;;3.50;1.72;;;22.10;99.90;;;;;;1960157;72;21058;-74
2021/06/04 06:47:38;;;;;;;6.10;1.77;;;22.90;99.90;;;;;;1960091;73;21604;-77
2021/06/04 06:50:04;;;;;;;2.83;1.70;;;23.20;99.90;;;;;;1960355;73;21101;-78
2021/06/04 06:52:30;;;;;;;6.03;1.70;;;23.30;99.90;;;;;;1960689;73;21038;-77
2021/06/04 06:54:57;;;;;;;3.00;1.77;;;23.80;99.90;;;;;;1960705;73;21063;-77
2021/06/04 06:57:23;;;;;;;1.98;1.40;;;24.90;99.90;;;;;;1960572;73;21121;-78
2021/06/04 06:59:49;;;;;;;2.75;1.40;;;25.10;99.90;;;;;;1960136;73;21161;-78
2021/06/04 07:02:18;;;;;;;6.95;2.25;;;24.90;99.90;;;;;;1953054;72;21163;-78
2021/06/04 07:04:43;;;;;;;1.80;1.37;;;25.40;99.90;;;;;;1959797;73;21234;-80
2021/06/04 07:07:09;;;;;;;5.87;1.52;;;25.60;99.90;;;;;;1950892;72;21136;-79
2021/06/04 07:09:35;;;;;;;2.90;1.70;;;25.20;99.90;;;;;;1951287;72;21562;-81
2021/06/04 07:12:01;;;;;;;4.35;1.57;;;25.50;99.90;;;;;;1914705;75;21524;-76
2021/06/04 07:14:27;;;;;;;2.60;1.45;;;26.10;99.90;;;;;;1949441;73;21533;-77
2021/06/04 07:16:53;;;;;;;2.05;1.42;;;25.30;99.90;;;;;;1911108;74;21414;-77
2021/06/04 07:19:20;;;;;;;7.70;1.50;;;25.00;99.90;;;;;;1976279;72;21479;-76
2021/06/04 07:21:46;;;;;;;3.72;1.55;;;25.40;99.90;;;;;;1974091;72;21070;-76
2021/06/04 07:24:14;;;;;;;6.50;1.95;;;25.90;99.90;;;;;;1972884;73;21117;-78
2021/06/04 07:26:41;;;;;;;2.47;1.10;;;26.20;99.90;;;;;;1977698;72;21039;-78
2021/06/04 07:29:07;;;;;;;1.95;1.22;;;26.10;99.90;;;;;;1972985;73;21180;-78
2021/06/04 07:31:33;;;;;;;2.65;1.25;;;25.00;99.90;;;;;;1972781;73;21059;-76
2021/06/04 07:34:02;;;;;;;6.22;1.10;;;25.00;99.90;;;;;;1972977;73;21095;-77
2021/06/04 07:36:27;;;;;;;5.47;1.57;;;25.10;99.90;;;;;;1973476;71;21472;-77
2021/06/04 07:38:53;;;;;;;3.10;1.60;;;25.20;99.90;;;;;;1972809;73;21564;-78
2021/06/04 07:41:19;;;;;;;2.00;1.27;;;25.30;99.90;;;;;;1972997;73;21534;-78
2021/06/04 07:43:45;;;;;;;9.08;1.80;;;25.10;99.90;;;;;;1972915;73;21523;-76
2021/06/04 07:46:11;;;;;;;1.87;1.40;;;24.70;99.90;;;;;;1973208;73;21055;-77
2021/06/04 07:48:37;;;;;;;5.25;1.25;;;25.20;99.90;;;;;;1972910;73;21055;-77
2021/06/04 07:51:04;;;;;;;4.20;1.10;;;25.70;99.90;;;;;;1973234;73;21060;-77
2021/06/04 07:53:30;;;;;;;1.50;1.12;;;26.30;99.90;;;;;;1973494;73;20996;-77
2021/06/04 07:55:56;;;;;;;2.47;1.42;;;27.00;99.90;;;;;;1973282;73;21101;-77
2021/06/04 07:58:22;;;;;;;7.03;2.10;;;26.80;99.90;;;;;;1973167;73;21096;-77
2021/06/04 08:00:48;;;;;;;3.15;1.07;;;26.10;99.90;;;;;;1973181;73;21123;-78
2021/06/04 08:03:14;;;;;;;3.52;1.10;;;26.50;99.90;;;;;;1973153;73;21102;-77
2021/06/04 08:05:40;;;;;;;2.10;1.27;;;27.50;99.90;;;;;;1973172;73;21126;-77
2021/06/04 08:08:08;;;;;;;1.32;0.82;;;28.00;99.90;;;;;;1973151;73;21090;-78
2021/06/04 08:10:34;;;;;;;2.70;0.88;;;28.40;99.90;;;;;;1973126;73;21159;-77
2021/06/04 08:13:00;;;;;;;1.35;0.80;;;27.60;99.90;;;;;;1972943;73;21023;-75
2021/06/04 08:15:27;;;;;;;2.10;1.40;;;27.60;99.90;;;;;;1973056;73;21076;-75
2021/06/04 08:17:53;;;;;;;4.97;1.07;;;27.70;99.90;;;;;;1973070;73;21111;-76
2021/06/04 08:20:22;;;;;;;1.92;0.93;;;28.10;99.90;;;;;;1973326;73;21100;-76
2021/06/04 08:22:47;;;;;;;3.27;1.17;;;29.20;99.90;;;;;;1973451;71;21145;-76
2021/06/04 08:25:13;;;;;;;3.47;0.90;;;28.80;99.90;;;;;;1973001;73;21121;-74
2021/06/04 08:27:39;;;;;;;1.72;1.00;;;28.40;99.90;;;;;;1973952;73;21040;-76
2021/06/04 08:30:07;;;;;;;8.58;1.10;;;28.50;99.90;;;;;;1974847;73;21133;-74
2021/06/04 08:32:33;;;;;;;1.55;0.82;;;27.80;99.90;;;;;;1973949;73;21075;-75
2021/06/04 08:35:00;;;;;;;3.10;0.80;;;27.40;99.90;;;;;;1973057;72;21165;-76
2021/06/04 08:37:26;;;;;;;1.07;0.68;;;27.40;99.90;;;;;;1972946;73;21020;-75
2021/06/04 08:39:52;;;;;;;2.67;1.10;;;27.80;99.90;;;;;;1973024;73;21083;-75
2021/06/04 08:42:18;;;;;;;2.98;1.35;;;28.40;99.90;;;;;;1973169;73;21088;-75
2021/06/04 08:44:44;;;;;;;2.05;0.90;;;28.90;99.90;;;;;;1972885;73;21114;-76
2021/06/04 08:47:14;;;;;;;1.42;0.80;;;29.00;99.90;;;;;;1973158;73;21088;-76
2021/06/04 08:49:38;;;;;;;2.08;1.32;;;29.10;99.90;;;;;;1973363;71;21103;-76
2021/06/04 08:52:04;;;;;;;3.25;1.20;;;29.20;99.90;;;;;;1973042;73;21204;-75
2021/06/04 08:54:30;;;;;;;6.83;1.17;;;28.30;99.90;;;;;;1973198;73;21059;-76
2021/06/04 08:56:57;;;;;;;2.00;1.10;;;28.50;99.90;;;;;;1973160;73;21141;-75
2021/06/04 08:59:23;;;;;;;0.72;0.72;;;29.10;99.90;;;;;;1973061;73;21553;-74
2021/06/04 09:01:49;;;;;;;7.90;1.37;;;29.00;99.90;;;;;;1973282;73;21520;-75
2021/06/04 09:04:16;;;;;;;1.47;0.65;;;28.70;99.90;;;;;;1973115;73;21059;-75
2021/06/04 09:06:42;;;;;;;1.65;1.00;;;28.40;99.90;;;;;;1973309;73;21100;-76
2021/06/04 09:09:08;;;;;;;2.52;1.10;;;28.00;99.90;;;;;;1973211;73;21028;-76
2021/06/04 09:11:35;;;;;;;1.22;0.85;;;28.90;99.90;;;;;;1973183;73;21117;-76
2021/06/04 09:14:01;;;;;;;3.52;0.80;;;29.20;99.90;;;;;;1973192;73;21103;-76
2021/06/04 09:16:28;;;;;;;8.00;1.35;;;29.20;99.90;;;;;;1973248;73;21153;-74
2021/06/04 09:18:54;;;;;;;2.55;0.80;;;28.60;99.90;;;;;;1973325;73;21065;-73
2021/06/04 09:21:20;;;;;;;1.17;0.90;;;28.30;99.90;;;;;;1973171;73;21031;-74
2021/06/04 09:23:46;;;;;;;1.35;1.07;;;28.30;99.90;;;;;;1973274;73;21154;-74
2021/06/04 09:26:12;;;;;;;2.62;1.10;;;28.70;99.90;;;;;;1973218;73;21161;-74
2021/06/04 09:28:38;;;;;;;2.58;1.27;;;29.20;99.90;;;;;;1973292;73;21072;-74
2021/06/04 09:31:05;;;;;;;1.05;0.80;;;29.00;99.90;;;;;;1973150;73;21483;-76
2021/06/04 09:33:31;;;;;;;1.42;0.90;;;29.10;99.90;;;;;;1973171;73;21536;-77
2021/06/04 09:35:57;;;;;;;2.15;0.98;;;29.40;99.90;;;;;;1973213;73;21125;-76
2021/06/04 09:38:23;;;;;;;6.25;1.30;;;29.50;99.90;;;;;;1973186;73;21173;-76
2021/06/04 09:40:49;;;;;;;1.32;0.90;;;29.30;99.90;;;;;;1973190;73;21092;-76
2021/06/04 09:43:15;;;;;;;4.03;1.45;;;28.80;99.90;;;;;;1974257;72;21044;-76
2021/06/04 09:45:43;;;;;;;1.07;0.80;;;28.70;99.90;;;;;;1973152;73;21067;-76
2021/06/04 09:48:09;;;;;;;2.67;1.10;;;28.80;99.90;;;;;;1973221;73;21096;-76
2021/06/04 09:50:35;;;;;;;4.85;0.93;;;29.10;99.90;;;;;;1973387;73;21075;-76
2021/06/04 09:53:02;;;;;;;3.25;0.80;;;29.70;99.90;;;;;;1973201;73;21081;-76
2021/06/04 09:55:29;;;;;;;2.25;1.10;;;30.30;99.90;;;;;;1973164;73;21032;-76
2021/06/04 09:57:55;;;;;;;0.98;0.78;;;29.80;99.90;;;;;;1973168;73;21102;-76
2021/06/04 10:00:21;;;;;;;1.65;0.72;;;29.70;99.90;;;;;;1976770;72;21071;-75
2021/06/04 10:02:47;;;;;;;1.20;0.80;;;29.20;99.90;;;;;;1975111;72;21058;-76
2021/06/04 10:05:13;;;;;;;2.33;0.90;;;29.60;99.90;;;;;;1973441;72;21020;-76
2021/06/04 10:07:39;;;;;;;1.70;0.80;;;30.10;99.90;;;;;;1975614;72;21067;-76
2021/06/04 10:10:06;;;;;;;6.92;0.82;;;30.00;99.90;;;;;;1973133;73;21161;-76
2021/06/04 10:12:32;;;;;;;6.95;0.72;;;29.90;99.90;;;;;;1975008;72;21136;-76
2021/06/04 10:15:02;;;;;;;2.95;1.15;;;29.40;99.90;;;;;;1975364;72;21079;-77
2021/06/04 10:17:38;;;;;;;5.03;1.40;;;28.80;99.90;;;;;;1978353;71;21049;-76
2021/06/04 10:19:54;;;;;;;1.20;0.95;;;28.40;99.90;;;;;;1980297;71;21189;-76
2021/06/04 10:22:25;;;;;;;1.62;1.20;;;27.80;99.90;;;;;;1973174;73;21079;-76
2021/06/04 10:24:52;;;;;;;3.15;1.02;;;28.30;99.90;;;;;;1973225;73;21141;-77
2021/06/04 10:27:18;;;;;;;1.55;1.10;;;28.90;99.90;;;;;;1973209;73;21028;-77
2021/06/04 10:29:44;;;;;;;1.82;1.12;;;29.00;99.90;;;;;;1973109;73;21420;-76
2021/06/04 10:32:10;;;;;;;1.98;1.27;;;28.20;99.90;;;;;;1973094;73;21023;-74
2021/06/04 10:34:36;;;;;;;1.72;1.12;;;28.00;99.90;;;;;;1973256;73;21088;-74
2021/06/04 10:37:02;;;;;;;2.47;1.30;;;28.00;99.90;;;;;;1972975;73;21051;-75
2021/06/04 10:39:28;;;;;;;2.35;1.15;;;28.00;99.90;;;;;;1973264;73;21093;-74
2021/06/04 10:41:55;;;;;;;2.92;1.00;;;27.90;99.90;;;;;;2010854;71;21095;-75
2021/06/04 10:44:21;;;;;;;2.58;1.30;;;27.90;99.90;;;;;;1973136;73;21136;-74
2021/06/04 10:46:47;;;;;;;3.50;1.30;;;27.70;99.90;;;;;;1973279;73;21515;-75
2021/06/04 10:49:13;;;;;;;2.42;1.30;;;27.40;99.90;;;;;;1973216;73;21463;-74
2021/06/04 10:51:39;;;;;;;4.97;2.00;;;27.10;99.90;;;;;;1973179;73;21496;-74
2021/06/04 10:54:05;;;;;;;9.18;1.30;;;27.30;99.90;;;;;;1973181;73;21475;-75
2021/06/04 10:56:32;;;;;;;7.47;1.30;;;27.30;99.90;;;;;;1973168;73;21528;-76
2021/06/04 10:58:58;;;;;;;1.42;1.20;;;26.90;99.90;;;;;;1973365;73;21484;-74
2021/06/04 11:01:25;;;;;;;1.20;1.10;;;26.50;99.90;;;;;;1973182;73;21110;-74
2021/06/04 11:03:51;;;;;;;4.95;1.00;;;26.40;99.90;;;;;;1973317;73;21096;-75
2021/06/04 11:06:18;;;;;;;7.08;1.17;;;26.60;99.90;;;;;;1973191;73;21482;-75
2021/06/04 11:08:44;;;;;;;2.77;1.30;;;26.30;99.90;;;;;;1973184;73;21471;-74
2021/06/04 11:11:10;;;;;;;3.37;1.37;;;25.90;99.90;;;;;;1973146;73;21032;-75
2021/06/04 11:13:36;;;;;;;1.07;1.00;;;25.70;99.90;;;;;;1973160;73;21059;-75
2021/06/04 11:16:02;;;;;;;1.67;0.98;;;25.40;99.90;;;;;;1973243;73;21182;-75
2021/06/04 11:18:28;;;;;;;0.78;0.70;;;25.40;99.90;;;;;;1973288;73;21161;-75
2021/06/04 11:20:54;;;;;;;4.08;0.80;;;25.40;99.90;;;;;;1973244;73;21204;-75
2021/06/04 11:23:21;;;;;;;1.82;0.65;;;25.30;99.90;;;;;;1973338;73;21077;-75
2021/06/04 11:25:51;;;;;;;1.22;0.80;;;25.20;99.90;;;;;;1973142;73;21494;-75
2021/06/04 11:28:15;;;;;;;1.90;1.07;;;25.10;99.90;;;;;;1973653;71;21088;-75
2021/06/04 11:30:41;;;;;;;3.12;1.17;;;24.80;99.90;;;;;;1973203;73;21079;-74
2021/06/04 11:33:07;;;;;;;3.15;1.05;;;24.10;99.90;;;;;;1972967;73;21062;-75
2021/06/04 11:35:34;;;;;;;5.67;1.20;;;24.10;99.90;;;;;;1973247;73;21089;-76
2021/06/04 11:38:00;;;;;;;5.08;1.17;;;23.90;99.90;;;;;;1973171;73;21071;-75
2021/06/04 11:40:28;;;;;;;5.08;1.20;;;23.80;99.90;;;;;;1973263;73;21096;-74
2021/06/04 11:42:54;;;;;;;4.10;1.07;;;23.10;99.90;;;;;;1973366;71;21080;-74
2021/06/04 11:45:22;;;;;;;4.95;1.10;;;22.20;99.90;;;;;;1973154;73;21451;-74
2021/06/04 11:47:48;;;;;;;3.83;1.20;;;21.70;99.90;;;;;;1973161;73;21067;-74
2021/06/04 11:50:14;;;;;;;2.60;1.32;;;21.50;99.90;;;;;;1973141;73;21071;-74
2021/06/04 11:52:40;;;;;;;2.37;1.20;;;21.60;99.90;;;;;;1973134;73;21042;-74
2021/06/04 11:55:06;;;;;;;1.52;0.98;;;21.70;99.90;;;;;;1973129;73;21040;-73
2021/06/04 11:57:33;;;;;;;1.45;1.10;;;21.60;99.90;;;;;;1973128;73;21133;-74
2021/06/04 11:59:59;;;;;;;3.20;1.10;;;21.60;99.90;;;;;;1973126;73;21071;-73
2021/06/04 12:02:25;;;;;;;1.85;0.85;;;21.90;99.90;;;;;;1973098;73;21078;-74
2021/06/04 12:04:51;;;;;;;3.22;0.90;;;22.00;99.90;;;;;;1973116;73;21467;-74
2021/06/04 12:07:17;;;;;;;3.55;1.12;;;21.90;99.90;;;;;;1973211;73;21464;-74
2021/06/04 12:12:29;;;;;;;2.02;0.90;;;22.30;99.90;;;;;;1967920;73;21066;-74
2021/06/04 12:14:58;;;;;;;7.42;1.40;;;22.40;99.90;;;;;;1968098;73;21072;-74
2021/06/04 12:17:25;;;;;;;9.25;1.30;;;22.60;99.90;;;;;;1968171;73;21051;-75
2021/06/04 12:19:51;;;;;;;7.33;1.52;;;22.50;99.90;;;;;;1968200;73;21055;-75
2021/06/04 12:22:17;;;;;;;1.77;1.32;;;22.70;99.90;;;;;;1968035;73;21099;-74
2021/06/04 12:24:43;;;;;;;5.22;1.12;;;22.90;99.90;;;;;;1968038;73;21024;-75
2021/06/04 12:27:10;;;;;;;2.27;1.02;;;23.00;99.90;;;;;;1968032;73;21051;-75
2021/06/04 12:29:36;;;;;;;1.40;1.10;;;23.10;99.90;;;;;;1968014;73;21091;-75
2021/06/04 12:32:03;;;;;;;1.17;0.78;;;23.10;99.90;;;;;;1968031;73;21125;-75
2021/06/04 12:34:29;;;;;;;3.30;1.02;;;23.20;99.90;;;;;;1968093;73;21028;-75
2021/06/04 12:36:55;;;;;;;1.57;1.00;;;23.30;99.90;;;;;;1968065;73;21180;-75
2021/06/04 12:39:22;;;;;;;1.10;0.82;;;23.40;99.90;;;;;;1968220;73;21031;-75
2021/06/04 12:41:48;;;;;;;2.47;1.20;;;23.40;99.90;;;;;;1968024;73;21120;-75
2021/06/04 12:44:14;;;;;;;2.65;1.50;;;23.50;99.90;;;;;;1968241;73;21059;-75